Time;durP1;ratioP1;P1;durP2;ratioP2;P2;SDS_P1;SDS_P2;PMS_P1;PMS_P2;Temp;Humidity;BMP_temperature;BMP_pressure;BME280_temperature;BME280_humidity;BME280_pressure;Samples;Min_cycle;Max_cycle;Signal;HPM_P1;HPM_P2
2022/10/19 00:00:28;;;;;;;10.30;3.30;;;;;;;9.26;62.57;99789.04;24421;1332;3069223;-66
2022/10/19 00:02:57;;;;;;;15.00;4.20;;;;;;;9.38;62.17;99786.52;24455;1329;3025931;-64
2022/10/19 00:05:26;;;;;;;8.20;4.30;;;;;;;9.32;62.37;99786.14;24410;1337;3048858;-63
2022/10/19 00:07:56;;;;;;;9.80;4.30;;;;;;;9.45;62.00;99785.45;24455;1318;3028668;-72
2022/10/19 00:10:25;;;;;;;10.90;4.00;;;;;;;9.50;61.58;99779.06;24450;1339;3028431;-70
2022/10/19 00:12:55;;;;;;;12.20;3.70;;;;;;;9.48;61.98;99775.36;24506;1338;3049859;-68
2022/10/19 00:15:26;;;;;;;8.00;4.70;;;;;;;9.52;61.73;99767.09;24473;1333;3030076;-71
2022/10/19 00:17:56;;;;;;;16.60;4.70;;;;;;;9.51;61.73;99769.44;24469;1339;3029278;-66
2022/10/19 00:20:25;;;;;;;10.80;4.70;;;;;;;9.45;61.91;99751.19;24475;1323;3026176;-65
2022/10/19 00:22:54;;;;;;;12.50;5.00;;;;;;;9.41;61.82;99745.09;24414;1331;3068625;-62
2022/10/19 00:25:23;;;;;;;11.70;4.40;;;;;;;9.33;62.08;99739.71;24454;1333;3028029;-64
2022/10/19 00:27:52;;;;;;;9.70;4.00;;;;;;;9.31;62.08;99735.65;24445;1326;3049408;-68
2022/10/19 00:30:21;;;;;;;14.40;5.00;;;;;;;9.18;62.55;99731.91;24468;1333;3028177;-68
2022/10/19 00:32:50;;;;;;;7.60;4.00;;;;;;;9.10;62.80;99727.08;24429;1338;3051787;-67
2022/10/19 00:35:19;;;;;;;10.10;5.10;;;;;;;9.10;62.78;99726.04;24518;1331;3027665;-66
2022/10/19 00:37:48;;;;;;;9.50;4.70;;;;;;;8.98;63.07;99720.69;24469;1336;3051186;-70
2022/10/19 00:40:20;;;;;;;11.20;5.10;;;;;;;8.91;63.10;99717.05;24471;1333;3028814;-64
2022/10/19 00:42:54;;;;;;;17.90;4.90;;;;;;;8.72;63.80;99716.89;24480;1326;3028872;-63
2022/10/19 00:45:23;;;;;;;10.40;4.20;;;;;;;8.67;64.08;99708.62;24524;1333;3051628;-71
2022/10/19 00:47:52;;;;;;;17.40;5.20;;;;;;;8.49;64.58;99707.52;24421;1332;3028596;-74
2022/10/19 00:50:21;;;;;;;12.00;5.20;;;;;;;8.49;64.54;99704.21;24463;1339;3052934;-62
2022/10/19 00:52:50;;;;;;;11.40;5.30;;;;;;;8.50;64.47;99695.44;24437;1332;3028439;-72
2022/10/19 00:55:20;;;;;;;13.40;5.60;;;;;;;8.48;64.44;99695.38;24466;1332;3052017;-64
2022/10/19 00:57:49;;;;;;;13.00;5.20;;;;;;;8.38;64.83;99694.08;24475;1326;3026062;-67
2022/10/19 01:00:18;;;;;;;11.50;5.00;;;;;;;8.27;65.42;99687.61;24450;1324;3056707;-65
2022/10/19 01:02:47;;;;;;;11.30;6.10;;;;;;;8.17;65.84;99687.02;24493;1325;3027945;-67
2022/10/19 01:05:18;;;;;;;12.60;4.80;;;;;;;8.19;65.77;99688.67;24465;1333;3051137;-73
2022/10/19 01:07:47;;;;;;;10.90;4.50;;;;;;;8.13;65.93;99687.40;24493;1316;3027472;-66
2022/10/19 01:10:16;;;;;;;11.00;4.90;;;;;;;8.11;65.87;99685.23;24447;1332;3068006;-61
2022/10/19 01:13:04;;;;;;;11.40;5.70;;;;;;;8.05;66.28;99678.86;24481;1329;3026466;-65
2022/10/19 01:15:55;;;;;;;12.30;5.50;;;;;;;8.07;66.04;99681.23;24488;1337;3050266;-71
2022/10/19 01:18:48;;;;;;;13.20;5.40;;;;;;;8.09;66.19;99675.21;24530;1323;3069422;-62
2022/10/19 01:21:23;;;;;;;12.90;5.00;;;;;;;8.02;66.68;99675.19;24485;1331;3051265;-68
2022/10/19 01:24:22;;;;;;;12.80;5.90;;;;;;;8.10;66.20;99676.54;24462;1341;3056325;-69
2022/10/19 01:27:12;;;;;;;12.00;5.80;;;;;;;8.10;66.50;99667.45;24479;1332;3054421;-61
2022/10/19 01:30:07;;;;;;;9.00;4.60;;;;;;;8.18;65.85;99665.69;24455;1333;3054120;-66
2022/10/19 01:32:45;;;;;;;11.70;5.00;;;;;;;8.28;65.84;99658.61;24525;1338;3052172;-63
2022/10/19 01:35:24;;;;;;;11.90;4.40;;;;;;;8.23;65.84;99659.35;24520;1333;3054293;-67
2022/10/19 01:37:55;;;;;;;11.60;5.70;;;;;;;8.30;65.71;99660.95;24487;1332;3051008;-72
2022/10/19 01:40:34;;;;;;;12.40;4.60;;;;;;;8.31;65.74;99653.05;24446;1333;3028222;-63
2022/10/19 01:43:18;;;;;;;9.30;4.40;;;;;;;8.25;65.96;99653.50;24533;1339;3051559;-70
2022/10/19 01:46:10;;;;;;;10.60;4.30;;;;;;;8.25;66.03;99654.91;24501;1326;3056581;-68
2022/10/19 01:48:46;;;;;;;7.60;4.20;;;;;;;8.26;66.05;99659.21;24468;1335;3054291;-72
2022/10/19 01:51:21;;;;;;;10.60;4.80;;;;;;;8.40;65.16;99655.91;24509;1333;3053725;-74
2022/10/19 01:53:51;;;;;;;10.20;5.10;;;;;;;8.35;65.59;99658.63;24538;1337;3052649;-69
2022/10/19 01:56:23;;;;;;;8.70;4.40;;;;;;;8.24;65.96;99657.55;24494;1333;3029423;-66
2022/10/19 01:58:54;;;;;;;10.60;3.40;;;;;;;8.30;65.56;99648.02;24476;1333;3029467;-66
2022/10/19 02:01:23;;;;;;;12.30;4.00;;;;;;;8.29;65.73;99644.55;24461;1333;3030180;-72
2022/10/19 02:03:53;;;;;;;14.10;4.00;;;;;;;8.27;65.87;99641.91;24518;1333;3028259;-60
2022/10/19 02:06:22;;;;;;;11.30;4.50;;;;;;;8.29;65.59;99644.24;24423;1328;3029656;-71
2022/10/19 02:08:53;;;;;;;10.20;4.50;;;;;;;8.28;65.64;99639.20;24442;1339;3070685;-64
2022/10/19 02:11:22;;;;;;;9.60;4.50;;;;;;;8.20;66.02;99634.55;24445;1325;3026826;-71
2022/10/19 02:14:00;;;;;;;9.50;4.20;;;;;;;8.27;65.66;99640.33;24451;1336;3029699;-66
2022/10/19 02:16:32;;;;;;;10.90;4.20;;;;;;;8.24;65.81;99639.40;24493;1332;3054234;-62
2022/10/19 02:19:01;;;;;;;11.10;5.30;;;;;;;8.23;65.90;99637.17;24523;1333;3026664;-68
2022/10/19 02:21:32;;;;;;;10.00;4.60;;;;;;;8.22;65.81;99638.96;24431;1327;3029312;-65
2022/10/19 02:24:01;;;;;;;10.70;4.00;;;;;;;8.10;66.60;99635.05;24470;1328;3027351;-61
2022/10/19 02:26:31;;;;;;;11.00;3.80;;;;;;;8.09;66.46;99633.65;24459;1339;3053099;-66
2022/10/19 02:28:59;;;;;;;11.30;4.20;;;;;;;8.10;66.40;99626.46;24490;1330;3028967;-71
2022/10/19 02:31:29;;;;;;;8.30;4.00;;;;;;;7.96;67.22;99624.17;24452;1333;3052678;-69
2022/10/19 02:33:58;;;;;;;7.70;3.90;;;;;;;7.98;66.81;99624.93;24487;1326;3027297;-60
2022/10/19 02:36:27;;;;;;;8.90;4.10;;;;;;;7.98;66.89;99617.82;24437;1336;3056004;-68
2022/10/19 02:38:58;;;;;;;11.50;4.90;;;;;;;7.93;67.19;99614.89;24466;1333;3027577;-78
2022/10/19 02:41:38;;;;;;;9.80;5.10;;;;;;;7.87;67.48;99612.20;24467;1338;3026579;-75
2022/10/19 02:44:42;;;;;;;9.80;4.80;;;;;;;7.88;67.41;99613.03;24486;1328;3056787;-64
2022/10/19 02:47:26;;;;;;;11.30;4.40;;;;;;;7.76;67.80;99610.65;24514;1326;3054281;-66
2022/10/19 02:49:55;;;;;;;12.10;5.20;;;;;;;7.80;67.59;99606.95;24527;1333;3053700;-63
2022/10/19 02:52:24;;;;;;;13.40;5.30;;;;;;;7.74;67.67;99604.80;24430;1333;3028069;-69
2022/10/19 02:54:54;;;;;;;8.30;4.20;;;;;;;7.66;67.95;99599.41;24443;1338;3054518;-68
2022/10/19 02:57:24;;;;;;;9.80;4.20;;;;;;;7.58;68.25;99595.08;24474;1331;3029795;-66
2022/10/19 02:59:55;;;;;;;9.10;4.70;;;;;;;7.55;68.25;99593.64;24478;1325;3028472;-74
2022/10/19 03:02:24;;;;;;;12.60;4.90;;;;;;;7.51;68.42;99585.47;24434;1333;3027173;-66
2022/10/19 03:04:53;;;;;;;14.90;5.00;;;;;;;7.44;68.88;99574.27;24505;1335;3053381;-72
2022/10/19 03:07:22;;;;;;;17.00;5.00;;;;;;;7.43;68.95;99571.85;24457;1324;3028231;-70
2022/10/19 03:09:51;;;;;;;12.60;4.90;;;;;;;7.43;69.05;99572.08;24522;1318;3051813;-65
2022/10/19 03:12:20;;;;;;;8.50;3.30;;;;;;;7.48;69.23;99561.03;24465;1333;3028513;-63
2022/10/19 03:14:49;;;;;;;9.60;3.40;;;;;;;8.12;68.23;99555.00;24489;1333;3057850;-64
2022/10/19 03:17:18;;;;;;;6.90;3.60;;;;;;;8.87;66.16;99549.86;24440;1324;3026251;-64
2022/10/19 03:19:51;;;;;;;9.50;3.90;;;;;;;8.86;65.63;99549.77;24447;1338;3051892;-71
2022/10/19 03:22:19;;;;;;;10.10;4.40;;;;;;;8.60;66.06;99548.47;24512;1326;3026629;-60
2022/10/19 03:24:49;;;;;;;7.40;4.00;;;;;;;8.47;66.43;99543.22;24484;1332;3068744;-59
2022/10/19 03:27:18;;;;;;;8.80;3.90;;;;;;;8.28;67.29;99542.91;24485;1324;3028301;-72
2022/10/19 03:30:08;;;;;;;11.60;4.00;;;;;;;8.22;67.42;99542.13;24502;1326;3052145;-61
2022/10/19 03:32:37;;;;;;;9.80;4.20;;;;;;;8.04;68.35;99543.17;24490;1340;3026837;-67
2022/10/19 03:35:07;;;;;;;11.60;4.80;;;;;;;7.95;68.43;99536.45;24477;1321;3028853;-63
2022/10/19 03:37:37;;;;;;;10.00;4.80;;;;;;;7.82;68.92;99537.27;24536;1340;3050501;-62
2022/10/19 03:40:06;;;;;;;10.50;5.00;;;;;;;7.78;68.71;99535.17;24475;1315;3029440;-62
2022/10/19 03:42:36;;;;;;;8.20;4.10;;;;;;;7.65;69.45;99532.34;24537;1332;3052979;-59
2022/10/19 03:45:06;;;;;;;10.90;4.60;;;;;;;7.55;70.23;99521.98;24518;1335;3025765;-61
2022/10/19 03:47:36;;;;;;;13.10;4.60;;;;;;;7.52;70.28;99521.63;24468;1331;3052105;-66
2022/10/19 03:50:05;;;;;;;9.50;4.40;;;;;;;7.50;69.91;99514.20;24509;1324;3028700;-62
2022/10/19 03:52:34;;;;;;;7.70;3.80;;;;;;;7.42;70.23;99513.19;24478;1331;3052869;-66
2022/10/19 03:55:04;;;;;;;9.90;4.30;;;;;;;7.31;70.60;99507.44;24530;1331;3028291;-59
2022/10/19 03:57:33;;;;;;;6.90;3.00;;;;;;;7.28;71.22;99503.05;24509;1321;3052795;-66
2022/10/19 04:00:04;;;;;;;5.90;3.00;;;;;;;7.95;70.35;99497.78;24508;1337;3029862;-65
2022/10/19 04:02:41;;;;;;;7.50;3.20;;;;;;;8.33;68.33;99493.26;24527;1323;3053085;-67
2022/10/19 04:05:11;;;;;;;7.70;3.50;;;;;;;8.55;67.71;99481.48;24511;1330;3029338;-64
2022/10/19 04:07:40;;;;;;;12.20;3.80;;;;;;;8.28;68.09;99475.89;24497;1330;3028834;-67
2022/10/19 04:10:09;;;;;;;7.10;3.40;;;;;;;8.07;68.97;99480.58;24472;1331;3052248;-68
2022/10/19 04:12:42;;;;;;;7.40;3.90;;;;;;;7.99;69.13;99476.64;24531;1337;3027535;-68
2022/10/19 04:15:11;;;;;;;6.80;3.80;;;;;;;7.74;70.62;99478.04;24510;1322;3028372;-63
2022/10/19 04:17:40;;;;;;;9.40;4.20;;;;;;;7.70;70.69;99473.17;24470;1329;3052833;-70
2022/10/19 04:20:10;;;;;;;12.80;3.70;;;;;;;7.51;72.29;99466.06;24516;1331;3027568;-68
2022/10/19 04:22:40;;;;;;;7.60;3.80;;;;;;;7.51;71.49;99463.42;24483;1317;3026872;-65
2022/10/19 04:25:11;;;;;;;5.50;3.40;;;;;;;7.47;71.87;99460.16;24515;1323;3028407;-67
2022/10/19 04:27:40;;;;;;;7.80;4.20;;;;;;;7.46;71.81;99459.30;24545;1336;3028692;-68
2022/10/19 04:30:09;;;;;;;4.20;2.80;;;;;;;7.32;73.45;99458.94;24544;1331;3029343;-73
2022/10/19 04:32:38;;;;;;;4.50;2.10;;;;;;;7.96;72.33;99451.27;24482;1332;3069408;-62
2022/10/19 04:35:08;;;;;;;8.90;3.00;;;;;;;8.56;69.81;99446.70;24510;1327;3028292;-66
2022/10/19 04:37:37;;;;;;;13.50;4.20;;;;;;;8.66;69.06;99436.97;24577;1332;3028694;-64
2022/10/19 04:40:07;;;;;;;8.20;4.10;;;;;;;8.43;69.77;99433.23;24457;1333;3068461;-63
2022/10/19 04:42:37;;;;;;;9.30;4.40;;;;;;;8.31;69.92;99437.31;24554;1339;3027176;-62
2022/10/19 04:45:07;;;;;;;6.50;3.20;;;;;;;8.07;71.01;99434.36;24471;1332;3027409;-70
2022/10/19 04:47:37;;;;;;;7.10;3.60;;;;;;;7.96;71.24;99428.80;24552;1333;3030206;-67
2022/10/19 04:50:06;;;;;;;9.10;3.40;;;;;;;7.81;72.37;99429.02;24616;1323;3025765;-62
2022/10/19 04:52:35;;;;;;;5.40;3.40;;;;;;;7.60;72.70;99427.09;24552;1323;3055937;-64
2022/10/19 04:55:04;;;;;;;8.50;3.90;;;;;;;7.59;72.55;99427.67;24521;1323;3029038;-59
2022/10/19 04:57:33;;;;;;;10.30;4.00;;;;;;;7.38;74.52;99422.09;24528;1331;3050810;-68
2022/10/19 05:00:03;;;;;;;7.00;2.50;;;;;;;7.34;74.66;99419.30;24472;1323;3028097;-69
2022/10/19 05:02:32;;;;;;;7.30;3.00;;;;;;;8.02;73.28;99412.45;24453;1323;3068071;-66
2022/10/19 05:05:03;;;;;;;9.20;3.40;;;;;;;8.64;70.81;99407.17;24489;1330;3028958;-63
2022/10/19 05:07:33;;;;;;;8.70;3.70;;;;;;;8.66;70.30;99400.94;24509;1335;3029399;-66
2022/10/19 05:10:02;;;;;;;15.10;4.10;;;;;;;8.54;70.76;99399.48;24536;1315;3029464;-66
2022/10/19 05:12:33;;;;;;;7.80;3.90;;;;;;;8.47;70.99;99394.27;24541;1330;3051260;-65
2022/10/19 05:15:03;;;;;;;10.90;4.70;;;;;;;8.43;71.63;99389.77;24462;1333;3026827;-68
2022/10/19 05:17:32;;;;;;;9.50;4.40;;;;;;;8.44;71.70;99388.85;24470;1336;3027280;-61
2022/10/19 05:20:04;;;;;;;10.20;4.60;;;;;;;8.23;73.86;99381.41;24495;1340;3027915;-66
2022/10/19 05:22:33;;;;;;;10.80;4.70;;;;;;;8.16;74.56;99377.58;24509;1323;3029671;-59
2022/10/19 05:25:03;;;;;;;5.40;3.00;;;;;;;8.23;75.12;99375.48;24469;1322;3027070;-62
2022/10/19 05:27:32;;;;;;;5.80;3.00;;;;;;;8.89;74.55;99377.17;24496;1331;3052505;-67
2022/10/19 05:30:01;;;;;;;5.50;3.60;;;;;;;9.40;71.91;99377.87;24551;1332;3027503;-60
2022/10/19 05:32:30;;;;;;;10.90;3.80;;;;;;;9.42;71.20;99373.38;24478;1333;3051602;-64
2022/10/19 05:34:59;;;;;;;7.20;3.60;;;;;;;9.38;70.91;99373.42;24509;1319;3028665;-66
2022/10/19 05:37:28;;;;;;;10.30;4.50;;;;;;;9.03;71.73;99372.20;24505;1339;3055965;-61
2022/10/19 05:39:57;;;;;;;8.90;4.60;;;;;;;8.80;72.26;99366.83;24526;1332;3027372;-61
2022/10/19 05:42:26;;;;;;;7.70;4.40;;;;;;;8.56;73.71;99367.64;24522;1332;3026516;-66
2022/10/19 05:44:55;;;;;;;6.50;3.90;;;;;;;8.55;73.53;99362.64;24550;1333;3057414;-71
2022/10/19 05:47:26;;;;;;;12.60;5.30;;;;;;;8.54;73.24;99364.94;24525;1323;3029165;-63
2022/10/19 05:49:55;;;;;;;8.60;3.30;;;;;;;8.56;73.83;99362.41;24526;1323;3029841;-66
2022/10/19 05:52:24;;;;;;;9.90;3.80;;;;;;;9.11;72.98;99356.78;24467;1338;3057146;-62
2022/10/19 05:54:54;;;;;;;7.30;3.30;;;;;;;9.53;72.07;99344.77;24538;1329;3029573;-68
2022/10/19 05:57:24;;;;;;;7.80;3.80;;;;;;;9.69;71.05;99345.59;24566;1326;3028992;-68
2022/10/19 05:59:55;;;;;;;10.20;4.70;;;;;;;9.71;71.23;99342.65;24493;1331;3026964;-64
2022/10/19 06:02:24;;;;;;;10.60;4.60;;;;;;;9.77;70.80;99339.19;24460;1333;3029675;-68
2022/10/19 06:04:53;;;;;;;11.30;4.30;;;;;;;9.65;71.54;99335.84;24546;1323;3029462;-67
2022/10/19 06:07:23;;;;;;;7.70;3.70;;;;;;;9.43;73.16;99332.41;24490;1333;3053406;-65
2022/10/19 06:09:52;;;;;;;10.00;3.90;;;;;;;9.54;73.01;99325.98;24503;1332;3028093;-69
2022/10/19 06:12:21;;;;;;;6.80;4.10;;;;;;;9.61;73.05;99322.60;24532;1339;3053520;-65
2022/10/19 06:14:51;;;;;;;6.20;2.90;;;;;;;9.65;73.58;99320.80;24518;1324;3029590;-64
2022/10/19 06:17:20;;;;;;;6.60;3.20;;;;;;;10.39;72.35;99320.56;24523;1316;3029918;-63
2022/10/19 06:19:49;;;;;;;6.60;2.90;;;;;;;11.04;69.94;99319.14;24508;1332;3054423;-70
2022/10/19 06:22:18;;;;;;;5.70;3.40;;;;;;;11.26;68.47;99318.23;24524;1315;3028966;-64
2022/10/19 06:24:47;;;;;;;6.10;3.80;;;;;;;11.13;68.87;99324.48;24537;1332;3053159;-65
2022/10/19 06:27:16;;;;;;;8.60;3.60;;;;;;;11.06;69.04;99325.08;24524;1323;3026080;-66
2022/10/19 06:29:45;;;;;;;6.70;4.30;;;;;;;11.09;68.59;99324.90;24654;1330;3056553;-66
2022/10/19 06:32:14;;;;;;;11.30;4.10;;;;;;;10.90;69.25;99327.50;24506;1333;3026967;-66
2022/10/19 06:34:43;;;;;;;12.30;4.80;;;;;;;10.79;69.81;99320.85;24536;1333;3026147;-66
2022/10/19 06:37:13;;;;;;;7.00;3.90;;;;;;;10.69;70.76;99319.79;24463;1333;3056475;-66
2022/10/19 06:39:42;;;;;;;7.60;4.40;;;;;;;10.73;70.25;99320.37;24479;1331;3028292;-65
2022/10/19 06:42:11;;;;;;;6.40;4.10;;;;;;;10.74;70.23;99318.74;24547;1325;3028644;-63
2022/10/19 06:44:40;;;;;;;7.80;3.20;;;;;;;10.58;71.76;99318.56;24481;1332;3057524;-71
2022/10/19 06:47:10;;;;;;;5.50;3.30;;;;;;;11.19;70.52;99308.14;24532;1315;3029257;-66
2022/10/19 06:49:40;;;;;;;5.90;3.50;;;;;;;11.60;68.92;99300.70;24514;1333;3050425;-64
2022/10/19 06:52:09;;;;;;;7.50;3.40;;;;;;;11.95;67.68;99291.16;24512;1315;3029137;-63
2022/10/19 06:54:38;;;;;;;10.20;3.70;;;;;;;12.03;67.46;99287.63;24470;1323;3068479;-63
2022/10/19 06:57:08;;;;;;;15.10;4.30;;;;;;;12.11;66.94;99285.66;24511;1331;3028524;-66
2022/10/19 06:59:41;;;;;;;9.60;4.00;;;;;;;11.98;67.33;99277.98;24495;1331;3027205;-65
2022/10/19 07:02:11;;;;;;;10.90;4.00;;;;;;;12.00;67.34;99277.29;24444;1333;3028159;-61
2022/10/19 07:04:40;;;;;;;12.10;3.70;;;;;;;11.85;67.76;99291.08;24530;1325;3026565;-66
2022/10/19 07:07:09;;;;;;;6.30;3.30;;;;;;;11.79;68.00;99280.30;24500;1335;3057397;-74
2022/10/19 07:09:36;;;;;;;5.70;3.70;;;;;;;11.82;67.68;99272.91;24073;1325;3029827;-67
2022/10/19 07:12:05;;;;;;;7.00;3.30;;;;;;;11.93;67.65;99265.84;24498;1324;3050788;-65
2022/10/19 07:14:38;;;;;;;6.70;3.80;;;;;;;12.07;66.94;99257.14;24468;1341;3028162;-71
2022/10/19 07:17:09;;;;;;;5.60;3.40;;;;;;;12.02;67.23;99252.75;24579;1332;3027121;-61
2022/10/19 07:19:40;;;;;;;8.80;3.70;;;;;;;11.90;67.74;99252.36;24468;1325;3027604;-65
2022/10/19 07:22:09;;;;;;;8.20;3.50;;;;;;;11.91;67.94;99240.52;24547;1323;3029461;-71
2022/10/19 07:24:40;;;;;;;8.30;3.90;;;;;;;11.93;68.17;99233.38;24527;1331;3054067;-64
2022/10/19 07:27:09;;;;;;;4.70;2.80;;;;;;;11.97;67.92;99226.92;24512;1340;3027105;-60
2022/10/19 07:29:38;;;;;;;7.00;2.90;;;;;;;12.55;66.74;99224.23;24474;1331;3029103;-65
2022/10/19 07:32:07;;;;;;;7.50;2.70;;;;;;;12.94;65.33;99221.89;24531;1331;3053205;-63
2022/10/19 07:34:36;;;;;;;7.30;3.50;;;;;;;13.32;63.82;99214.17;24533;1324;3029316;-66
2022/10/19 07:37:05;;;;;;;6.30;3.10;;;;;;;13.38;63.52;99205.14;24507;1331;3057189;-66
2022/10/19 07:39:34;;;;;;;6.10;3.10;;;;;;;13.15;64.47;99199.78;24526;1324;3027266;-66
2022/10/19 07:42:03;;;;;;;7.20;3.80;;;;;;;12.95;65.06;99205.32;24560;1338;3050061;-60
2022/10/19 07:44:32;;;;;;;9.70;3.50;;;;;;;12.89;65.38;99196.79;24830;1331;3026594;-66
2022/10/19 07:47:05;;;;;;;7.10;3.90;;;;;;;12.88;65.55;99195.30;24512;1324;3028754;-63
2022/10/19 07:49:35;;;;;;;7.40;3.30;;;;;;;12.74;65.57;99191.42;24498;1340;3026380;-68
2022/10/19 07:52:04;;;;;;;7.20;3.80;;;;;;;12.68;65.59;99188.15;24523;1337;3029449;-68
2022/10/19 07:54:33;;;;;;;5.90;3.80;;;;;;;12.66;65.81;99177.98;24577;1330;3052790;-62
2022/10/19 07:57:04;;;;;;;10.40;4.00;;;;;;;12.81;65.21;99170.85;24513;1340;3029292;-66
2022/10/19 07:59:34;;;;;;;7.60;3.90;;;;;;;12.80;65.26;99165.66;24533;1323;3026615;-65
2022/10/19 08:02:08;;;;;;;6.50;3.80;;;;;;;12.96;64.42;99165.88;24464;1331;3055039;-66
2022/10/19 08:04:38;;;;;;;9.20;3.90;;;;;;;12.86;64.17;99163.95;24517;1334;3027286;-60
2022/10/19 08:07:08;;;;;;;6.00;3.10;;;;;;;12.95;63.70;99163.64;24573;1334;3025695;-65
2022/10/19 08:09:39;;;;;;;8.30;3.50;;;;;;;13.09;63.52;99150.09;24544;1331;3026496;-69
2022/10/19 08:12:08;;;;;;;6.30;3.60;;;;;;;13.17;63.12;99150.55;24523;1324;3028883;-67
2022/10/19 08:14:38;;;;;;;5.80;3.30;;;;;;;13.17;61.90;99144.77;24517;1331;3051260;-65
2022/10/19 08:17:10;;;;;;;5.40;2.50;;;;;;;13.29;60.74;99142.44;24580;1331;3028561;-62
2022/10/19 08:19:44;;;;;;;5.10;2.40;;;;;;;13.42;56.15;99164.70;24495;1339;3048738;-62
2022/10/19 08:22:13;;;;;;;9.50;3.00;;;;;;;13.61;57.10;99139.63;24494;1334;3026931;-67
2022/10/19 08:24:43;;;;;;;9.10;3.50;;;;;;;13.66;58.91;99137.14;24526;1331;3030099;-62
2022/10/19 08:27:13;;;;;;;9.00;4.00;;;;;;;13.63;59.70;99133.15;24515;1327;3028598;-65
2022/10/19 08:32:36;;;;;;;10.30;4.00;;;;;;;13.76;59.02;99128.26;30786;1333;3013234;-67
2022/10/19 08:35:06;;;;;;;9.40;3.30;;;;;;;13.83;58.27;99111.22;24414;1333;3029939;-69
2022/10/19 08:37:35;;;;;;;5.60;2.50;;;;;;;13.82;56.43;99105.46;24488;1333;3026766;-66
2022/10/19 08:40:21;;;;;;;5.50;1.80;;;;;;;14.08;53.48;99092.63;24349;1346;3048963;-67
2022/10/19 08:43:14;;;;;;;4.30;2.00;;;;;;;14.13;51.84;99103.84;24418;1339;3070313;-66
2022/10/19 08:45:42;;;;;;;5.40;1.90;;;;;;;14.12;51.23;99091.08;24138;1340;3050903;-63
2022/10/19 08:48:26;;;;;;;3.10;1.90;;;;;;;14.26;51.08;99076.05;24440;1340;3049224;-65
2022/10/19 08:50:55;;;;;;;5.10;2.60;;;;;;;14.42;51.50;99073.70;24407;1329;3068825;-67
2022/10/19 08:53:49;;;;;;;3.80;2.30;;;;;;;14.37;51.20;99086.95;24407;1323;3030595;-68
2022/10/19 08:56:27;;;;;;;4.80;2.00;;;;;;;14.35;51.22;99085.67;24435;1345;3049382;-65
2022/10/19 08:59:12;;;;;;;9.30;2.40;;;;;;;14.42;51.01;99084.58;24460;1338;3070961;-65
2022/10/19 09:01:54;;;;;;;8.90;3.70;;;;;;;14.59;51.15;99083.36;24484;1330;3048657;-67
2022/10/19 09:04:37;;;;;;;5.90;2.50;;;;;;;14.70;51.25;99078.22;24441;1334;3058084;-66
2022/10/19 09:07:13;;;;;;;7.30;2.80;;;;;;;14.77;50.92;99088.42;24447;1328;3052518;-65
2022/10/19 09:09:45;;;;;;;4.50;2.10;;;;;;;14.80;50.50;99084.48;24449;1343;3053993;-63
2022/10/19 09:12:21;;;;;;;3.90;1.60;;;;;;;15.00;49.93;99080.80;24442;1329;3051270;-66
2022/10/19 09:14:55;;;;;;;4.90;2.20;;;;;;;15.05;49.09;99090.42;24461;1326;3054350;-67
2022/10/19 09:17:26;;;;;;;10.10;2.20;;;;;;;15.21;49.26;99080.45;24618;1337;3050309;-68
2022/10/19 09:19:57;;;;;;;3.00;1.50;;;;;;;15.32;48.76;99093.66;24585;1330;3027196;-61
2022/10/19 09:22:29;;;;;;;2.60;1.30;;;;;;;15.44;48.10;99076.34;24487;1337;3026884;-69
2022/10/19 09:25:19;;;;;;;2.90;1.40;;;;;;;15.49;47.95;99076.65;24450;1335;3027692;-65
2022/10/19 09:27:59;;;;;;;4.10;1.10;;;;;;;15.62;46.20;99085.95;24446;1329;3053720;-72
2022/10/19 09:30:28;;;;;;;2.30;1.10;;;;;;;15.76;44.85;99086.51;24592;1333;3052817;-68
2022/10/19 09:33:00;;;;;;;3.30;1.30;;;;;;;15.76;44.69;99090.70;24614;1332;3028056;-65
2022/10/19 09:35:37;;;;;;;4.00;1.10;;;;;;;15.84;44.59;99069.07;24731;1334;3054285;-64
2022/10/19 09:38:06;;;;;;;4.60;1.20;;;;;;;15.89;44.78;99058.70;24493;1337;3053358;-65
2022/10/19 09:40:36;;;;;;;3.00;1.10;;;;;;;15.84;44.98;99082.41;24489;1344;3029450;-63
2022/10/19 09:43:19;;;;;;;3.80;1.40;;;;;;;15.91;45.04;99054.46;24561;1333;3028976;-64
2022/10/19 09:45:56;;;;;;;2.50;1.70;;;;;;;15.79;45.88;99051.09;24465;1332;3053916;-71
2022/10/19 09:48:46;;;;;;;2.30;1.20;;;;;;;15.99;45.95;99050.04;24626;1333;3051922;-58
2022/10/19 09:51:15;;;;;;;5.40;1.50;;;;;;;16.16;45.81;99033.80;24596;1333;3053559;-62
2022/10/19 09:53:49;;;;;;;6.10;1.40;;;;;;;16.17;45.56;99041.02;24565;1336;3027185;-62
2022/10/19 09:56:20;;;;;;;4.60;1.60;;;;;;;16.23;45.36;99043.84;24499;1332;3026883;-65
2022/10/19 09:58:52;;;;;;;2.70;1.30;;;;;;;16.17;45.71;99033.77;24561;1334;3026604;-59
2022/10/19 10:01:32;;;;;;;3.00;1.60;;;;;;;16.14;46.45;99034.21;24554;1328;3027058;-63
2022/10/19 10:04:05;;;;;;;2.80;1.70;;;;;;;16.09;46.73;99035.71;24660;1333;3053874;-69
2022/10/19 10:06:38;;;;;;;2.50;1.30;;;;;;;16.26;46.82;99027.81;24699;1327;3027629;-64
2022/10/19 10:09:15;;;;;;;5.20;1.90;;;;;;;16.47;46.88;99019.58;24702;1326;3026493;-67
2022/10/19 10:11:46;;;;;;;9.30;1.60;;;;;;;16.58;46.68;99027.33;24517;1334;3053833;-67
2022/10/19 10:14:31;;;;;;;5.20;2.00;;;;;;;16.66;46.58;99050.39;24521;1336;3026721;-64
2022/10/19 10:17:00;;;;;;;3.40;1.90;;;;;;;16.50;47.86;99026.31;24601;1334;3070568;-60
2022/10/19 10:19:30;;;;;;;3.20;1.90;;;;;;;16.56;48.32;99028.76;24557;1334;3028778;-68
2022/10/19 10:22:02;;;;;;;3.60;1.80;;;;;;;16.56;48.64;99018.73;24570;1327;3028038;-66
2022/10/19 10:24:33;;;;;;;6.80;2.70;;;;;;;16.64;48.85;99023.30;24598;1334;3027960;-64
2022/10/19 10:27:03;;;;;;;3.30;1.80;;;;;;;16.83;48.74;99014.06;24583;1326;3027737;-63
2022/10/19 10:29:34;;;;;;;4.80;1.90;;;;;;;16.97;48.47;99015.81;24569;1333;3056726;-62
2022/10/19 10:32:11;;;;;;;9.10;2.60;;;;;;;16.99;48.56;99021.84;24535;1333;3025943;-65
2022/10/19 10:35:04;;;;;;;4.20;2.20;;;;;;;16.88;49.03;99016.86;24594;1333;3054064;-64
2022/10/19 10:37:38;;;;;;;;;;;;;;;16.94;48.95;99007.09;24628;1326;3050783;-64
2022/10/19 10:40:25;;;;;;;9.10;1.90;;;;;;;16.82;49.56;98994.39;24747;1326;3052381;-64
2022/10/19 10:43:01;;;;;;;4.70;2.50;;;;;;;16.94;48.57;99004.11;24583;1333;3050277;-63
2022/10/19 10:45:32;;;;;;;9.50;3.10;;;;;;;16.71;48.91;98994.36;24501;1326;3070089;-66
2022/10/19 10:48:27;;;;;;;5.70;3.10;;;;;;;16.87;48.28;98967.77;24607;1327;3027805;-65
2022/10/19 10:51:00;;;;;;;10.60;3.70;;;;;;;17.11;47.55;98965.45;24505;1326;3057622;-68
2022/10/19 10:53:37;;;;;;;8.50;3.60;;;;;;;17.17;47.52;98976.24;24621;1333;3028614;-63
2022/10/19 10:56:27;;;;;;;5.60;3.00;;;;;;;17.20;48.12;98960.23;24583;1332;3053282;-63
2022/10/19 10:59:11;;;;;;;7.00;3.10;;;;;;;17.51;47.55;98949.58;24568;1326;3050078;-64
2022/10/19 11:01:44;;;;;;;5.10;2.60;;;;;;;17.59;47.69;98978.08;24586;1325;3053291;-67
2022/10/19 11:04:18;;;;;;;4.20;2.50;;;;;;;17.45;47.90;98954.44;24521;1333;3050377;-63
2022/10/19 11:06:53;;;;;;;11.30;3.20;;;;;;;17.65;47.75;98943.79;24475;1336;3026380;-67
2022/10/19 11:09:37;;;;;;;6.60;2.80;;;;;;;17.66;46.94;98951.30;24511;1333;3049258;-67
2022/10/19 11:12:10;;;;;;;7.70;3.00;;;;;;;17.67;47.30;98936.75;24470;1333;3058347;-64
2022/10/19 11:14:55;;;;;;;6.70;2.90;;;;;;;17.70;47.04;98940.31;24418;1340;3053424;-67
2022/10/19 11:17:30;;;;;;;5.30;2.80;;;;;;;17.70;47.17;98925.63;24473;1334;3054500;-61
2022/10/19 11:19:59;;;;;;;7.20;3.30;;;;;;;17.58;48.08;98931.09;24510;1336;3026550;-64
2022/10/19 11:22:42;;;;;;;8.80;4.00;;;;;;;17.64;48.10;98933.48;24487;1333;3028099;-66
2022/10/19 11:25:26;;;;;;;6.80;3.00;;;;;;;17.71;47.70;98925.70;24515;1333;3049654;-64
2022/10/19 11:28:27;;;;;;;8.20;2.50;;;;;;;17.69;48.00;98928.71;24761;1333;3069439;-65
2022/10/19 11:31:30;;;;;;;8.30;3.10;;;;;;;17.86;47.20;98917.81;24508;1333;3052160;-61
2022/10/19 11:34:11;;;;;;;9.10;2.90;;;;;;;17.79;46.79;98914.33;24488;1343;3056552;-66
2022/10/19 11:37:18;;;;;;;7.30;4.20;;;;;;;17.85;45.99;98925.56;24462;1325;3052644;-67
2022/10/19 11:39:47;;;;;;;8.20;3.90;;;;;;;17.97;45.73;98930.42;24474;1333;3053038;-60
2022/10/19 11:42:23;;;;;;;7.60;3.80;;;;;;;17.98;45.84;98922.70;24501;1326;3029235;-60
2022/10/19 11:45:15;;;;;;;13.20;5.20;;;;;;;18.04;45.58;98915.68;24561;1326;3053702;-64
2022/10/19 11:48:33;;;;;;;12.60;5.30;;;;;;;18.16;45.35;98914.77;24440;1340;3054166;-62